createdAt,value
2023-02-24T00:02:01.213Z,100888.69
2023-02-24T00:04:30.446Z,100887.91
2023-02-24T00:06:57.421Z,100869.69
2023-02-24T00:09:27.250Z,100884.53
2023-02-24T00:11:57.118Z,100878.13
2023-02-24T00:14:27.226Z,100879.13
2023-02-24T00:16:54.603Z,100867.03
2023-02-24T00:19:24.720Z,100865.78
2023-02-24T00:21:54.215Z,100867.53
2023-02-24T00:24:22.584Z,100865.97
2023-02-24T00:26:59.479Z,100853.66
2023-02-24T00:29:28.684Z,100866.66
2023-02-24T00:32:01.429Z,100840.56
2023-02-24T00:34:35.440Z,100851.06
2023-02-24T00:37:03.168Z,100853.66
2023-02-24T00:39:30.522Z,100857.09
2023-02-24T00:42:04.500Z,100843.94
2023-02-24T00:44:41.505Z,100840.34
2023-02-24T00:47:10.443Z,100842.91
2023-02-24T00:49:42.291Z,100839.38
2023-02-24T00:52:20.644Z,100841.09
2023-02-24T00:54:49.319Z,100849.19
2023-02-24T00:57:21.348Z,100831.59
2023-02-24T00:59:51.786Z,100833.66
2023-02-24T01:02:20.298Z,100833.97
2023-02-24T01:04:47.343Z,100831.59
2023-02-24T01:07:14.884Z,100835.84
2023-02-24T01:09:43.885Z,100825.03
2023-02-24T01:12:31.473Z,100822.28
2023-02-24T01:14:58.562Z,100799.69
2023-02-24T01:17:25.628Z,100817.03
2023-02-24T01:19:52.834Z,100812.66
2023-02-24T01:22:21.508Z,100800.72
2023-02-24T01:24:49.060Z,100794.22
2023-02-24T01:27:19.513Z,100794.94
2023-02-24T01:29:49.826Z,100787.16
2023-02-24T01:32:21.860Z,100776.81
2023-02-24T01:34:52.425Z,100779.50
2023-02-24T01:37:20.585Z,100770.72
2023-02-24T01:39:48.314Z,100757.00
2023-02-24T01:42:20.005Z,100760.38
2023-02-24T01:44:47.619Z,100767.03
2023-02-24T01:47:20.934Z,100760.84
2023-02-24T01:49:54.171Z,100753.09
2023-02-24T01:52:26.173Z,100761.00
2023-02-24T01:55:22.767Z,100745.22
2023-02-24T01:57:52.611Z,100742.47
2023-02-24T02:00:31.493Z,100751.13
2023-02-24T02:03:04.092Z,100746.03
2023-02-24T02:05:31.320Z,100742.72
2023-02-24T02:07:58.417Z,100736.53
2023-02-24T02:10:26.572Z,100734.97
2023-02-24T02:12:53.581Z,100736.06
2023-02-24T02:15:20.793Z,100734.41
2023-02-24T02:18:11.003Z,100722.50
2023-02-24T02:21:15.253Z,100720.53
2023-02-24T02:24:22.103Z,100718.19
2023-02-24T02:27:19.848Z,100719.00
2023-02-24T02:30:17.344Z,100707.69
2023-02-24T02:33:21.404Z,100707.78
2023-02-24T02:36:00.517Z,100708.00
2023-02-24T02:38:57.533Z,100699.38
2023-02-24T02:41:31.305Z,100697.88
2023-02-24T02:44:11.948Z,100691.19
2023-02-24T02:46:51.182Z,100693.09
2023-02-24T02:49:42.332Z,100687.91
2023-02-24T02:52:21.272Z,100662.19
2023-02-24T02:55:04.998Z,100677.22
2023-02-24T02:57:33.885Z,100683.66
2023-02-24T03:00:21.312Z,100680.69
2023-02-24T03:02:55.254Z,100675.41
2023-02-24T03:05:30.725Z,100672.06
2023-02-24T03:08:00.901Z,100671.19
2023-02-24T03:10:34.225Z,100656.47
2023-02-24T03:13:03.990Z,100660.56
2023-02-24T03:15:33.550Z,100654.84
2023-02-24T03:18:12.210Z,100652.81
2023-02-24T03:20:48.341Z,100659.06
2023-02-24T03:23:19.733Z,100653.59
2023-02-24T03:26:06.121Z,100620.03
2023-02-24T03:28:37.787Z,100642.97
2023-02-24T03:31:11.181Z,100646.63
2023-02-24T03:33:46.838Z,100636.34
2023-02-24T03:36:15.071Z,100644.81
2023-02-24T03:38:43.871Z,100630.09
2023-02-24T03:41:13.406Z,100621.19
2023-02-24T03:43:45.417Z,100629.97
2023-02-24T03:46:15.223Z,100623.84
2023-02-24T03:48:52.702Z,100614.28
2023-02-24T03:51:23.415Z,100605.28
2023-02-24T03:54:16.163Z,100621.03
2023-02-24T03:57:12.488Z,100595.63
2023-02-24T04:00:22.030Z,100611.50
2023-02-24T04:03:25.623Z,100611.97
2023-02-24T04:06:29.594Z,100603.84
2023-02-24T04:09:43.659Z,100602.13
2023-02-24T04:12:29.489Z,100597.03
2023-02-24T04:15:15.995Z,100596.38
2023-02-24T04:17:53.605Z,100578.78
2023-02-24T04:20:27.882Z,100579.09
2023-02-24T04:23:10.616Z,100573.47
2023-02-24T04:25:39.766Z,100568.38
2023-02-24T04:28:10.661Z,100568.16
2023-02-24T04:30:43.876Z,100566.66
2023-02-24T04:33:12.354Z,100562.22
2023-02-24T04:35:40.616Z,100571.91
2023-02-24T04:38:07.908Z,100563.13
2023-02-24T04:40:36.613Z,100547.97
2023-02-24T04:43:03.798Z,100545.47
2023-02-24T04:45:32.400Z,100538.56
2023-02-24T04:48:02.056Z,100537.63
2023-02-24T04:50:36.665Z,100528.72
2023-02-24T04:53:09.512Z,100536.41
2023-02-24T04:55:41.465Z,100537.25
2023-02-24T04:58:19.261Z,100528.56
2023-02-24T05:00:57.897Z,100516.22
2023-02-24T05:03:28.504Z,100521.38
2023-02-24T05:06:00.142Z,100519.50
2023-02-24T05:08:30.203Z,100512.22
2023-02-24T05:10:58.534Z,100494.84
2023-02-24T05:13:28.664Z,100489.31
2023-02-24T05:16:04.256Z,100488.28
2023-02-24T05:18:36.955Z,100466.47
2023-02-24T05:21:32.343Z,100477.81
2023-02-24T05:23:59.892Z,100471.34
2023-02-24T05:26:27.492Z,100457.63
2023-02-24T05:28:56.567Z,100453.88
2023-02-24T05:31:28.002Z,100451.06
2023-02-24T05:34:00.159Z,100446.59
2023-02-24T05:36:40.409Z,100442.38
2023-02-24T05:39:12.505Z,100436.66
2023-02-24T05:41:42.515Z,100431.34
2023-02-24T05:44:16.122Z,100427.66
2023-02-24T05:46:46.082Z,100424.22
2023-02-24T05:49:23.257Z,100429.53
2023-02-24T05:51:56.053Z,100418.38
2023-02-24T05:54:32.778Z,100413.81
2023-02-24T05:57:01.548Z,100405.78
2023-02-24T05:59:33.104Z,100399.91
2023-02-24T06:02:07.734Z,100394.50
2023-02-24T06:04:40.872Z,100384.50
2023-02-24T06:07:25.525Z,100388.81
2023-02-24T06:09:58.591Z,100384.66
2023-02-24T06:12:30.358Z,100382.63
2023-02-24T06:15:00.830Z,100382.78
2023-02-24T06:17:28.501Z,100387.78
2023-02-24T06:19:55.410Z,100375.75
2023-02-24T06:22:26.139Z,100371.22
2023-02-24T06:24:55.089Z,100374.66
2023-02-24T06:27:25.064Z,100359.00
2023-02-24T06:29:54.852Z,100347.75
2023-02-24T06:32:26.092Z,100361.19
2023-02-24T06:34:53.988Z,100366.34
2023-02-24T06:37:23.118Z,100363.69
2023-02-24T06:39:50.848Z,100358.53
2023-02-24T06:42:17.901Z,100343.00
2023-02-24T06:44:45.253Z,100349.84
2023-02-24T06:47:14.728Z,100332.81
2023-02-24T06:49:44.616Z,100326.06
2023-02-24T06:52:19.298Z,100316.31
2023-02-24T06:54:49.096Z,100317.78
2023-02-24T06:57:15.992Z,100326.44
2023-02-24T06:59:42.935Z,100315.88
2023-02-24T07:02:10.888Z,100314.88
2023-02-24T07:04:43.872Z,100320.69
2023-02-24T07:07:14.298Z,100314.28
2023-02-24T07:09:42.969Z,100307.69
2023-02-24T07:12:11.168Z,100309.06
2023-02-24T07:14:38.420Z,100312.66
2023-02-24T07:17:05.825Z,100304.34
2023-02-24T07:19:33.697Z,100289.56
2023-02-24T07:22:03.572Z,100290.34
2023-02-24T07:24:37.200Z,100291.13
2023-02-24T07:27:21.989Z,100273.59
2023-02-24T07:29:52.920Z,100276.78
2023-02-24T07:32:22.391Z,100277.47
2023-02-24T07:34:49.441Z,100276.78
2023-02-24T07:37:16.735Z,100262.72
2023-02-24T07:39:43.847Z,100272.94
2023-02-24T07:42:15.006Z,100259.81
2023-02-24T07:44:46.690Z,100248.91
2023-02-24T07:47:16.029Z,100262.03
2023-02-24T07:49:45.197Z,100256.34
2023-02-24T07:52:12.153Z,100250.88
2023-02-24T07:54:39.381Z,100257.72
2023-02-24T07:57:13.485Z,100250.78
2023-02-24T07:59:47.190Z,100246.34
2023-02-24T08:02:15.877Z,100249.84
2023-02-24T08:04:49.813Z,100233.88
2023-02-24T08:07:25.168Z,100232.50
2023-02-24T08:10:11.979Z,100205.84
2023-02-24T08:12:44.439Z,100207.88
2023-02-24T08:15:23.764Z,100209.78
2023-02-24T08:17:55.493Z,100203.31
2023-02-24T08:20:25.215Z,100173.13
2023-02-24T08:22:55.072Z,100203.06
2023-02-24T08:25:35.804Z,100203.50
2023-02-24T08:28:09.379Z,100199.81
2023-02-24T08:30:45.939Z,100202.56
2023-02-24T08:33:21.311Z,100180.50
2023-02-24T08:35:58.089Z,100187.28
2023-02-24T08:38:27.563Z,100186.88
2023-02-24T08:40:57.206Z,100178.53
2023-02-24T08:43:38.537Z,100169.97
2023-02-24T08:46:13.214Z,100168.31
2023-02-24T08:48:48.111Z,100162.00
2023-02-24T08:51:34.443Z,100160.03
2023-02-24T08:54:15.369Z,100140.09
2023-02-24T08:56:49.087Z,100136.75
2023-02-24T08:59:38.619Z,100155.56
2023-02-24T09:02:23.217Z,100139.88
2023-02-24T09:05:04.975Z,100152.03
2023-02-24T09:07:38.100Z,100136.66
2023-02-24T09:10:18.521Z,100152.47
2023-02-24T09:12:47.294Z,100143.38
2023-02-24T09:15:15.561Z,100130.00
2023-02-24T09:17:45.864Z,100135.66
2023-02-24T09:20:27.463Z,100124.25
2023-02-24T09:23:09.652Z,100115.69
2023-02-24T09:25:43.973Z,100084.63
2023-02-24T09:28:24.742Z,100103.34
2023-02-24T09:30:57.010Z,100103.34
2023-02-24T09:33:41.879Z,100102.31
2023-02-24T09:36:20.598Z,100094.69
2023-02-24T09:39:03.185Z,100072.91
2023-02-24T09:42:03.940Z,100078.31
2023-02-24T09:44:41.553Z,100073.00
2023-02-24T09:47:54.875Z,100059.34
2023-02-24T09:50:47.319Z,100063.91
2023-02-24T09:53:17.573Z,100048.81
2023-02-24T09:56:14.215Z,100051.38
2023-02-24T09:58:47.892Z,100054.47
2023-02-24T10:01:43.289Z,100045.88
2023-02-24T10:04:36.141Z,100033.72
2023-02-24T10:07:18.565Z,100039.34
2023-02-24T10:10:30.778Z,100022.72
2023-02-24T10:13:33.721Z,100020.84
2023-02-24T10:16:08.077Z,100009.03
2023-02-24T10:18:43.588Z,100014.28
2023-02-24T10:21:30.605Z,100001.41
2023-02-24T10:24:08.097Z,100004.59
2023-02-24T10:26:59.506Z,100000.00
2023-02-24T10:30:01.401Z,99989.22
2023-02-24T10:32:43.332Z,99986.66
2023-02-24T10:35:17.135Z,99967.03
2023-02-24T10:37:44.725Z,99952.03
2023-02-24T10:40:17.626Z,99973.72
2023-02-24T10:42:47.958Z,99953.22
2023-02-24T10:45:25.659Z,99956.91
2023-02-24T10:47:58.716Z,99959.00
2023-02-24T10:50:54.972Z,99938.28
2023-02-24T10:53:43.675Z,99927.91
2023-02-24T10:56:32.944Z,99931.03
2023-02-24T10:59:39.118Z,99926.78
2023-02-24T11:02:29.994Z,99936.56
2023-02-24T11:05:03.268Z,99930.56
2023-02-24T11:07:43.869Z,99932.09
2023-02-24T11:10:39.114Z,99923.28
2023-02-24T11:13:25.056Z,99895.25
2023-02-24T11:16:13.617Z,99896.81
2023-02-24T11:18:50.048Z,99891.41
2023-02-24T11:21:17.899Z,99894.88
2023-02-24T11:23:56.882Z,99886.66
2023-02-24T11:26:36.577Z,99882.13
2023-02-24T11:29:21.484Z,99880.41
2023-02-24T11:32:42.858Z,99874.91
2023-02-24T11:35:20.406Z,99862.38
2023-02-24T11:37:55.953Z,99850.63
2023-02-24T11:40:27.249Z,99842.94
2023-02-24T11:43:03.228Z,99840.94
2023-02-24T11:45:38.179Z,99839.63
2023-02-24T11:48:20.406Z,99841.06
2023-02-24T11:51:01.647Z,99833.75
2023-02-24T11:53:55.205Z,99832.81
2023-02-24T11:56:29.419Z,99830.72
2023-02-24T11:59:21.297Z,99818.69
2023-02-24T12:02:03.808Z,99820.00
2023-02-24T12:04:40.841Z,99825.13
2023-02-24T12:07:35.213Z,99830.38
2023-02-24T12:10:29.650Z,99810.81
2023-02-24T12:13:11.241Z,99802.91
2023-02-24T12:15:55.678Z,99799.13
2023-02-24T12:18:32.221Z,99795.53
2023-02-24T12:21:34.540Z,99783.72
2023-02-24T12:24:08.516Z,99797.03
2023-02-24T12:26:59.411Z,99783.19
2023-02-24T12:30:07.102Z,99776.53
2023-02-24T12:32:59.758Z,99767.69
2023-02-24T12:35:54.066Z,99766.44
2023-02-24T12:38:43.360Z,99777.38
2023-02-24T12:41:32.417Z,99776.22
2023-02-24T12:44:27.531Z,99769.94
2023-02-24T12:47:13.313Z,99759.06
2023-02-24T12:50:12.803Z,99762.81
2023-02-24T12:53:06.380Z,99750.56
2023-02-24T12:55:44.557Z,99736.63
2023-02-24T12:58:19.555Z,99748.38
2023-02-24T13:01:21.591Z,99745.72
2023-02-24T13:04:03.658Z,99740.28
2023-02-24T13:06:58.179Z,99754.34
2023-02-24T13:09:52.308Z,99740.94
2023-02-24T13:12:45.666Z,99723.28
2023-02-24T13:15:25.340Z,99704.19
2023-02-24T13:17:57.691Z,99701.22
2023-02-24T13:20:36.751Z,99706.69
2023-02-24T13:23:19.949Z,99696.13
2023-02-24T13:25:53.915Z,99700.22
2023-02-24T13:28:41.132Z,99685.75
2023-02-24T13:31:13.571Z,99677.66
2023-02-24T13:33:45.006Z,99659.22
2023-02-24T13:36:23.264Z,99677.50
2023-02-24T13:38:52.170Z,99681.97
2023-02-24T13:41:28.017Z,99670.81
2023-02-24T13:43:58.373Z,99669.63
2023-02-24T13:46:28.473Z,99652.72
2023-02-24T13:49:40.190Z,99636.94
2023-02-24T13:52:55.781Z,99628.13
2023-02-24T13:55:59.409Z,99655.84
2023-02-24T13:59:05.094Z,99644.75
2023-02-24T14:01:46.063Z,99641.78
2023-02-24T14:04:44.291Z,99640.81
2023-02-24T14:07:19.532Z,99639.53
2023-02-24T14:09:53.517Z,99623.25
2023-02-24T14:12:25.488Z,99627.25
2023-02-24T14:14:53.596Z,99620.66
2023-02-24T14:17:28.896Z,99621.09
2023-02-24T14:20:07.899Z,99613.84
2023-02-24T14:22:49.309Z,99615.53
2023-02-24T14:25:18.205Z,99605.69
2023-02-24T14:27:49.101Z,99607.91
2023-02-24T14:30:26.849Z,99605.03
2023-02-24T14:32:54.880Z,99602.38
2023-02-24T14:35:31.809Z,99591.28
2023-02-24T14:38:00.302Z,99584.88
2023-02-24T14:40:29.238Z,99581.06
2023-02-24T14:42:57.605Z,99578.25
2023-02-24T14:45:28.578Z,99571.63
2023-02-24T14:47:56.738Z,99568.22
2023-02-24T14:50:34.548Z,99560.13
2023-02-24T14:53:09.876Z,99558.31
2023-02-24T14:55:40.277Z,99564.47
2023-02-24T14:58:16.111Z,99567.25
2023-02-24T15:01:34.436Z,99560.34
2023-02-24T15:04:34.218Z,99559.16
2023-02-24T15:07:05.349Z,99552.63
2023-02-24T15:09:43.391Z,99544.84
2023-02-24T15:12:36.629Z,99548.13
2023-02-24T15:15:18.124Z,99549.50
2023-02-24T15:17:45.229Z,99536.63
2023-02-24T15:20:32.387Z,99546.50
2023-02-24T15:23:00.442Z,99539.38
2023-02-24T15:25:51.051Z,99542.88
2023-02-24T15:28:30.842Z,99535.72
2023-02-24T15:31:11.459Z,99534.13
2023-02-24T15:33:45.713Z,99522.28
2023-02-24T15:36:23.732Z,99534.00
2023-02-24T15:39:10.532Z,99528.94
2023-02-24T15:41:47.189Z,99521.41
2023-02-24T15:44:32.996Z,99508.81
2023-02-24T15:47:19.116Z,99497.22
2023-02-24T15:49:46.086Z,99507.59
2023-02-24T15:52:13.203Z,99507.94
2023-02-24T15:54:42.477Z,99502.88
2023-02-24T15:57:16.888Z,99498.31
2023-02-24T15:59:44.774Z,99486.94
2023-02-24T16:02:17.231Z,99498.31
2023-02-24T16:04:44.210Z,99485.72
2023-02-24T16:07:34.035Z,99481.34
2023-02-24T16:10:02.149Z,99484.63
2023-02-24T16:12:35.180Z,99478.34
2023-02-24T16:15:05.921Z,99485.50
2023-02-24T16:17:39.903Z,99485.84
2023-02-24T16:20:13.742Z,99489.88
2023-02-24T16:22:40.764Z,99493.91
2023-02-24T16:25:08.129Z,99473.97
2023-02-24T16:27:36.296Z,99471.06
2023-02-24T16:30:03.966Z,99473.88
2023-02-24T16:32:31.004Z,99456.38
2023-02-24T16:34:58.009Z,99474.44
2023-02-24T16:37:29.249Z,99474.91
2023-02-24T16:39:56.399Z,99476.00
2023-02-24T16:42:31.094Z,99486.47
2023-02-24T16:44:58.040Z,99506.09
2023-02-24T16:47:25.808Z,99500.88
2023-02-24T16:49:57.559Z,99508.53
2023-02-24T16:52:24.961Z,99505.88
2023-02-24T16:54:52.113Z,99498.44
2023-02-24T16:57:19.060Z,99503.44
2023-02-24T16:59:46.429Z,99501.72
2023-02-24T17:02:22.241Z,99502.25
2023-02-24T17:04:49.362Z,99491.56
2023-02-24T17:07:17.598Z,99504.34
2023-02-24T17:09:44.538Z,99495.09
2023-02-24T17:12:13.824Z,99509.38
2023-02-24T17:14:40.824Z,99517.38
2023-02-24T17:17:07.785Z,99517.38
2023-02-24T17:19:35.091Z,99517.84
2023-02-24T17:22:01.967Z,99505.06
2023-02-24T17:24:29.869Z,99508.50
2023-02-24T17:27:01.061Z,99511.72
2023-02-24T17:29:28.235Z,99519.50
2023-02-24T17:31:55.344Z,99537.41
2023-02-24T17:34:23.966Z,99518.25
2023-02-24T17:36:50.921Z,99538.91
2023-02-24T17:39:17.889Z,99540.56
2023-02-24T17:41:45.208Z,99548.22
2023-02-24T17:44:12.133Z,99556.44
2023-02-24T17:46:39.191Z,99559.44
2023-02-24T17:49:06.364Z,99554.97
2023-02-24T17:51:33.360Z,99559.16
2023-02-24T17:54:00.352Z,99561.81
2023-02-24T17:56:27.684Z,99554.16
2023-02-24T17:58:58.677Z,99561.44
2023-02-24T18:01:27.170Z,99560.06
2023-02-24T18:03:57.330Z,99565.25
2023-02-24T18:06:25.200Z,99562.94
2023-02-24T18:08:52.167Z,99565.84
2023-02-24T18:11:20.171Z,99571.78
2023-02-24T18:13:50.783Z,99562.53
2023-02-24T18:16:17.945Z,99561.66
2023-02-24T18:18:45.071Z,99565.53
2023-02-24T18:21:12.043Z,99567.00
2023-02-24T18:23:40.224Z,99561.66
2023-02-24T18:26:10.312Z,99557.63
2023-02-24T18:28:37.895Z,99561.34
2023-02-24T18:31:13.195Z,99571.16
2023-02-24T18:33:40.408Z,99562.25
2023-02-24T18:36:08.249Z,99556.38
2023-02-24T18:38:35.957Z,99560.88
2023-02-24T18:41:07.213Z,99559.28
2023-02-24T18:43:35.508Z,99562.91
2023-02-24T18:46:05.817Z,99563.84
2023-02-24T18:48:33.803Z,99568.22
2023-02-24T18:51:01.470Z,99565.97
2023-02-24T18:53:31.768Z,99569.94
2023-02-24T18:56:05.562Z,99563.53
2023-02-24T18:58:32.659Z,99562.16
2023-02-24T19:00:59.960Z,99581.22
2023-02-24T19:03:27.554Z,99567.91
2023-02-24T19:05:54.443Z,99576.31
2023-02-24T19:08:21.349Z,99570.03
2023-02-24T19:10:48.269Z,99569.50
2023-02-24T19:13:15.199Z,99569.50
2023-02-24T19:15:44.701Z,99571.41
2023-02-24T19:18:11.880Z,99569.69
2023-02-24T19:20:45.208Z,99569.56
2023-02-24T19:23:12.103Z,99564.91
2023-02-24T19:25:39.881Z,99577.03
2023-02-24T19:28:07.673Z,99570.66
2023-02-24T19:30:34.564Z,99577.94
2023-02-24T19:33:01.606Z,99573.88
2023-02-24T19:35:29.660Z,99578.00
2023-02-24T19:37:56.551Z,99586.00
2023-02-24T19:40:23.690Z,99566.28
2023-02-24T19:42:51.789Z,99583.34
2023-02-24T19:45:19.404Z,99584.94
2023-02-24T19:47:46.952Z,99580.59
2023-02-24T19:50:15.997Z,99576.53
2023-02-24T19:52:43.198Z,99586.34
2023-02-24T19:55:12.244Z,99576.44
2023-02-24T19:57:39.413Z,99580.19
2023-02-24T20:00:11.578Z,99590.72
2023-02-24T20:02:41.404Z,99592.88
2023-02-24T20:05:10.311Z,99574.09
2023-02-24T20:07:37.712Z,99583.47
2023-02-24T20:10:05.468Z,99596.38
2023-02-24T20:12:32.400Z,99582.97
2023-02-24T20:14:59.282Z,99577.94
2023-02-24T20:17:26.838Z,99580.63
2023-02-24T20:19:53.766Z,99582.41
2023-02-24T20:22:21.741Z,99583.28
2023-02-24T20:24:48.819Z,99579.22
2023-02-24T20:27:15.685Z,99585.06
2023-02-24T20:29:42.669Z,99581.66
2023-02-24T20:32:10.038Z,99577.41
2023-02-24T20:34:38.215Z,99597.00
2023-02-24T20:37:06.508Z,99585.31
2023-02-24T20:39:34.731Z,99588.59
2023-02-24T20:42:01.618Z,99589.97
2023-02-24T20:44:28.793Z,99574.31
2023-02-24T20:46:55.682Z,99590.72
2023-02-24T20:49:22.608Z,99604.16
2023-02-24T20:51:49.598Z,99605.09
2023-02-24T20:54:16.847Z,99598.72
2023-02-24T20:56:45.487Z,99610.75
2023-02-24T20:59:23.891Z,99607.34
2023-02-24T21:01:51.682Z,99612.25
2023-02-24T21:04:21.123Z,99611.19
2023-02-24T21:06:48.649Z,99599.91
2023-02-24T21:09:16.545Z,99607.34
2023-02-24T21:11:43.479Z,99600.94
2023-02-24T21:14:17.378Z,99610.31
2023-02-24T21:16:45.946Z,99613.53
2023-02-24T21:19:13.085Z,99590.28
2023-02-24T21:21:40.047Z,99596.91
2023-02-24T21:24:07.554Z,99610.44
2023-02-24T21:26:34.449Z,99605.44
2023-02-24T21:29:01.399Z,99605.84
2023-02-24T21:31:28.721Z,99602.00
2023-02-24T21:33:56.594Z,99603.94
2023-02-24T21:36:25.936Z,99611.19
2023-02-24T21:38:54.321Z,99609.16
2023-02-24T21:41:21.804Z,99614.28
2023-02-24T21:44:00.509Z,99623.09
2023-02-24T21:46:28.601Z,99617.66
2023-02-24T21:49:00.315Z,99624.63
2023-02-24T21:51:28.308Z,99617.91
2023-02-24T21:53:56.771Z,99621.94
2023-02-24T21:56:27.945Z,99618.84
2023-02-24T21:59:02.837Z,99629.81
2023-02-24T22:01:36.484Z,99612.78
2023-02-24T22:04:09.360Z,99613.41
2023-02-24T22:06:38.209Z,99614.34
2023-02-24T22:09:08.606Z,99626.41
2023-02-24T22:11:38.172Z,99633.56
2023-02-24T22:14:09.044Z,99621.50
2023-02-24T22:16:35.982Z,99623.53
2023-02-24T22:19:03.848Z,99615.63
2023-02-24T22:21:31.269Z,99629.59
2023-02-24T22:24:02.494Z,99632.16
2023-02-24T22:26:31.901Z,99631.53
2023-02-24T22:29:00.605Z,99638.00
2023-02-24T22:31:31.719Z,99629.06
2023-02-24T22:33:59.313Z,99652.63
2023-02-24T22:36:30.960Z,99643.47
2023-02-24T22:39:00.547Z,99642.91
2023-02-24T22:41:31.629Z,99652.19
2023-02-24T22:43:59.633Z,99638.63
2023-02-24T22:46:33.983Z,99626.59
2023-02-24T22:49:01.327Z,99639.41
2023-02-24T22:51:28.663Z,99653.34
2023-02-24T22:53:56.232Z,99632.34
2023-02-24T22:56:26.688Z,99648.56
2023-02-24T22:58:53.996Z,99648.34
2023-02-24T23:01:30.517Z,99646.84
2023-02-24T23:04:01.455Z,99652.50
2023-02-24T23:06:29.348Z,99645.66
2023-02-24T23:08:58.664Z,99656.00
2023-02-24T23:11:36.549Z,99648.44
2023-02-24T23:14:06.829Z,99654.31
2023-02-24T23:16:35.773Z,99651.31
2023-02-24T23:19:12.866Z,99653.78
2023-02-24T23:21:45.104Z,99656.00
2023-02-24T23:24:14.404Z,99654.88
2023-02-24T23:26:46.185Z,99656.00
2023-02-24T23:29:17.173Z,99669.22
2023-02-24T23:31:45.641Z,99665.41
2023-02-24T23:34:13.111Z,99659.53
2023-02-24T23:36:43.859Z,99670.63
2023-02-24T23:39:14.285Z,99684.56
2023-02-24T23:41:41.459Z,99661.16
2023-02-24T23:44:09.336Z,99673.59
2023-02-24T23:46:37.181Z,99670.00
2023-02-24T23:49:06.212Z,99674.78
2023-02-24T23:51:50.146Z,99678.53
2023-02-24T23:54:18.633Z,99669.00
2023-02-24T23:56:46.363Z,99682.13
2023-02-24T23:59:13.429Z,99683.19
